<?xml version="1.0" encoding="UTF-8" standalone="no" ?>
<gpx xmlns="http://www.topografix.com/GPX/1/1" xmlns:xsi="http://www.w3.org/2001/XMLSchema-instance" xsi:schemaLocation="http://www.topografix.com/GPX/1/1 http://www.topografix.com/GPX/1/1/gpx.xsd" version="1.1" creator="VisuGPX - https://www.visugpx.com">
  <metadata>
    <name>Col de Vence Plan des Noves</name>
    <desc><![CDATA[Rando facile de moins de deux heures]]></desc>
  </metadata>
  <trk>
    <name><![CDATA[8 nov. 2015]]></name>
    <cmt><![CDATA[14:17:06]]></cmt>
    <desc><![CDATA[comment ...]]></desc>
    <trkseg>
      <trkpt lat="43.7591" lon="7.0868">
        <ele>805</ele>
        <time>2015-11-08T13:16:58Z</time>
      </trkpt>
      <trkpt lat="43.75876" lon="7.08677">
        <ele>833</ele>
        <time>2015-11-08T13:17:27Z</time>
      </trkpt>
      <trkpt lat="43.75871" lon="7.08677">
        <ele>838</ele>
        <time>2015-11-08T13:17:33Z</time>
      </trkpt>
      <trkpt lat="43.75864" lon="7.0868">
        <ele>820</ele>
        <time>2015-11-08T13:17:35Z</time>
      </trkpt>
      <trkpt lat="43.75859" lon="7.08679">
        <ele>814</ele>
        <time>2015-11-08T13:17:38Z</time>
      </trkpt>
      <trkpt lat="43.75859" lon="7.08683">
        <ele>812</ele>
        <time>2015-11-08T13:17:39Z</time>
      </trkpt>
      <trkpt lat="43.75844" lon="7.08682">
        <ele>800</ele>
        <time>2015-11-08T13:17:50Z</time>
      </trkpt>
      <trkpt lat="43.75843" lon="7.08684">
        <ele>799</ele>
        <time>2015-11-08T13:17:51Z</time>
      </trkpt>
      <trkpt lat="43.75839" lon="7.08682">
        <ele>801</ele>
        <time>2015-11-08T13:17:54Z</time>
      </trkpt>
      <trkpt lat="43.75837" lon="7.08682">
        <ele>801</ele>
        <time>2015-11-08T13:17:55Z</time>
      </trkpt>
      <trkpt lat="43.75833" lon="7.08685">
        <ele>800</ele>
        <time>2015-11-08T13:17:59Z</time>
      </trkpt>
      <trkpt lat="43.75833" lon="7.08688">
        <ele>800</ele>
        <time>2015-11-08T13:18:01Z</time>
      </trkpt>
      <trkpt lat="43.75843" lon="7.08708">
        <ele>800</ele>
        <time>2015-11-08T13:18:14Z</time>
      </trkpt>
      <trkpt lat="43.75844" lon="7.08718">
        <ele>800</ele>
        <time>2015-11-08T13:18:20Z</time>
      </trkpt>
      <trkpt lat="43.75846" lon="7.08719">
        <ele>800</ele>
        <time>2015-11-08T13:18:34Z</time>
      </trkpt>
      <trkpt lat="43.75846" lon="7.08725">
        <ele>799</ele>
        <time>2015-11-08T13:18:41Z</time>
      </trkpt>
      <trkpt lat="43.75848" lon="7.08728">
        <ele>798</ele>
        <time>2015-11-08T13:18:44Z</time>
      </trkpt>
      <trkpt lat="43.75862" lon="7.08752">
        <ele>799</ele>
        <time>2015-11-08T13:19:03Z</time>
      </trkpt>
      <trkpt lat="43.75864" lon="7.08753">
        <ele>799</ele>
        <time>2015-11-08T13:19:05Z</time>
      </trkpt>
      <trkpt lat="43.75866" lon="7.08753">
        <ele>799</ele>
        <time>2015-11-08T13:19:07Z</time>
      </trkpt>
      <trkpt lat="43.75891" lon="7.08773">
        <ele>795</ele>
        <time>2015-11-08T13:19:40Z</time>
      </trkpt>
      <trkpt lat="43.75909" lon="7.08777">
        <ele>793</ele>
        <time>2015-11-08T13:19:57Z</time>
      </trkpt>
      <trkpt lat="43.75913" lon="7.08788">
        <ele>792</ele>
        <time>2015-11-08T13:20:20Z</time>
      </trkpt>
      <trkpt lat="43.75918" lon="7.0879">
        <ele>790</ele>
        <time>2015-11-08T13:20:25Z</time>
      </trkpt>
      <trkpt lat="43.75926" lon="7.08791">
        <ele>789</ele>
        <time>2015-11-08T13:20:35Z</time>
      </trkpt>
      <trkpt lat="43.75933" lon="7.08801">
        <ele>788</ele>
        <time>2015-11-08T13:20:43Z</time>
      </trkpt>
      <trkpt lat="43.75937" lon="7.08799">
        <ele>787</ele>
        <time>2015-11-08T13:20:46Z</time>
      </trkpt>
      <trkpt lat="43.75954" lon="7.0881">
        <ele>784</ele>
        <time>2015-11-08T13:21:11Z</time>
      </trkpt>
      <trkpt lat="43.75956" lon="7.08809">
        <ele>782</ele>
        <time>2015-11-08T13:21:43Z</time>
      </trkpt>
      <trkpt lat="43.75958" lon="7.08807">
        <ele>782</ele>
        <time>2015-11-08T13:21:53Z</time>
      </trkpt>
      <trkpt lat="43.75967" lon="7.08815">
        <ele>775</ele>
        <time>2015-11-08T13:22:15Z</time>
      </trkpt>
      <trkpt lat="43.75996" lon="7.08834">
        <ele>768</ele>
        <time>2015-11-08T13:22:46Z</time>
      </trkpt>
      <trkpt lat="43.75997" lon="7.08841">
        <ele>767</ele>
        <time>2015-11-08T13:22:50Z</time>
      </trkpt>
      <trkpt lat="43.76011" lon="7.08866">
        <ele>764</ele>
        <time>2015-11-08T13:23:51Z</time>
      </trkpt>
      <trkpt lat="43.76014" lon="7.08871">
        <ele>764</ele>
        <time>2015-11-08T13:24:01Z</time>
      </trkpt>
      <trkpt lat="43.7602" lon="7.08879">
        <ele>762</ele>
        <time>2015-11-08T13:24:22Z</time>
      </trkpt>
      <trkpt lat="43.76033" lon="7.08895">
        <ele>761</ele>
        <time>2015-11-08T13:24:52Z</time>
      </trkpt>
      <trkpt lat="43.76045" lon="7.0892">
        <ele>756</ele>
        <time>2015-11-08T13:25:25Z</time>
      </trkpt>
      <trkpt lat="43.76057" lon="7.0895">
        <ele>755</ele>
        <time>2015-11-08T13:25:50Z</time>
      </trkpt>
      <trkpt lat="43.76069" lon="7.08976">
        <ele>754</ele>
        <time>2015-11-08T13:26:17Z</time>
      </trkpt>
      <trkpt lat="43.76068" lon="7.08982">
        <ele>755</ele>
        <time>2015-11-08T13:26:25Z</time>
      </trkpt>
      <trkpt lat="43.76072" lon="7.08987">
        <ele>754</ele>
        <time>2015-11-08T13:26:53Z</time>
      </trkpt>
      <trkpt lat="43.7607" lon="7.08994">
        <ele>754</ele>
        <time>2015-11-08T13:26:55Z</time>
      </trkpt>
      <trkpt lat="43.76082" lon="7.09048">
        <ele>753</ele>
        <time>2015-11-08T13:27:32Z</time>
      </trkpt>
      <trkpt lat="43.76092" lon="7.09075">
        <ele>749</ele>
        <time>2015-11-08T13:28:02Z</time>
      </trkpt>
      <trkpt lat="43.76092" lon="7.09081">
        <ele>749</ele>
        <time>2015-11-08T13:28:18Z</time>
      </trkpt>
      <trkpt lat="43.76095" lon="7.09086">
        <ele>749</ele>
        <time>2015-11-08T13:28:26Z</time>
      </trkpt>
      <trkpt lat="43.76096" lon="7.09093">
        <ele>749</ele>
        <time>2015-11-08T13:28:34Z</time>
      </trkpt>
      <trkpt lat="43.76108" lon="7.09117">
        <ele>745</ele>
        <time>2015-11-08T13:29:04Z</time>
      </trkpt>
      <trkpt lat="43.76117" lon="7.09136">
        <ele>743</ele>
        <time>2015-11-08T13:29:30Z</time>
      </trkpt>
      <trkpt lat="43.76116" lon="7.09142">
        <ele>743</ele>
        <time>2015-11-08T13:29:33Z</time>
      </trkpt>
      <trkpt lat="43.76116" lon="7.0918">
        <ele>740</ele>
        <time>2015-11-08T13:30:07Z</time>
      </trkpt>
      <trkpt lat="43.76118" lon="7.09182">
        <ele>740</ele>
        <time>2015-11-08T13:30:10Z</time>
      </trkpt>
      <trkpt lat="43.76118" lon="7.09186">
        <ele>739</ele>
        <time>2015-11-08T13:30:13Z</time>
      </trkpt>
      <trkpt lat="43.76122" lon="7.09194">
        <ele>739</ele>
        <time>2015-11-08T13:30:21Z</time>
      </trkpt>
      <trkpt lat="43.76127" lon="7.09224">
        <ele>738</ele>
        <time>2015-11-08T13:30:53Z</time>
      </trkpt>
      <trkpt lat="43.76128" lon="7.09226">
        <ele>738</ele>
        <time>2015-11-08T13:30:55Z</time>
      </trkpt>
      <trkpt lat="43.7613" lon="7.09231">
        <ele>737</ele>
        <time>2015-11-08T13:31:00Z</time>
      </trkpt>
      <trkpt lat="43.76129" lon="7.09234">
        <ele>737</ele>
        <time>2015-11-08T13:31:03Z</time>
      </trkpt>
      <trkpt lat="43.76132" lon="7.09246">
        <ele>735</ele>
        <time>2015-11-08T13:31:14Z</time>
      </trkpt>
      <trkpt lat="43.76127" lon="7.09256">
        <ele>735</ele>
        <time>2015-11-08T13:31:20Z</time>
      </trkpt>
      <trkpt lat="43.76128" lon="7.09266">
        <ele>736</ele>
        <time>2015-11-08T13:31:28Z</time>
      </trkpt>
      <trkpt lat="43.76129" lon="7.09265">
        <ele>736</ele>
        <time>2015-11-08T13:31:39Z</time>
      </trkpt>
      <trkpt lat="43.76128" lon="7.09271">
        <ele>736</ele>
        <time>2015-11-08T13:32:57Z</time>
      </trkpt>
      <trkpt lat="43.76121" lon="7.09293">
        <ele>734</ele>
        <time>2015-11-08T13:33:22Z</time>
      </trkpt>
      <trkpt lat="43.76121" lon="7.09305">
        <ele>733</ele>
        <time>2015-11-08T13:33:34Z</time>
      </trkpt>
      <trkpt lat="43.76132" lon="7.09326">
        <ele>727</ele>
        <time>2015-11-08T13:34:08Z</time>
      </trkpt>
      <trkpt lat="43.76137" lon="7.09337">
        <ele>724</ele>
        <time>2015-11-08T13:34:19Z</time>
      </trkpt>
      <trkpt lat="43.76137" lon="7.09349">
        <ele>722</ele>
        <time>2015-11-08T13:34:32Z</time>
      </trkpt>
      <trkpt lat="43.76143" lon="7.09372">
        <ele>721</ele>
        <time>2015-11-08T13:35:05Z</time>
      </trkpt>
      <trkpt lat="43.76152" lon="7.09399">
        <ele>720</ele>
        <time>2015-11-08T13:35:39Z</time>
      </trkpt>
      <trkpt lat="43.76156" lon="7.09431">
        <ele>717</ele>
        <time>2015-11-08T13:36:11Z</time>
      </trkpt>
      <trkpt lat="43.76158" lon="7.09437">
        <ele>714</ele>
        <time>2015-11-08T13:36:18Z</time>
      </trkpt>
      <trkpt lat="43.76167" lon="7.0945">
        <ele>713</ele>
        <time>2015-11-08T13:36:52Z</time>
      </trkpt>
      <trkpt lat="43.76173" lon="7.09487">
        <ele>707</ele>
        <time>2015-11-08T13:37:25Z</time>
      </trkpt>
      <trkpt lat="43.76176" lon="7.09506">
        <ele>705</ele>
        <time>2015-11-08T13:37:42Z</time>
      </trkpt>
      <trkpt lat="43.76175" lon="7.09521">
        <ele>709</ele>
        <time>2015-11-08T13:37:58Z</time>
      </trkpt>
      <trkpt lat="43.76176" lon="7.09523">
        <ele>708</ele>
        <time>2015-11-08T13:38:00Z</time>
      </trkpt>
      <trkpt lat="43.76175" lon="7.09538">
        <ele>706</ele>
        <time>2015-11-08T13:38:11Z</time>
      </trkpt>
      <trkpt lat="43.76175" lon="7.0954">
        <ele>705</ele>
        <time>2015-11-08T13:38:14Z</time>
      </trkpt>
      <trkpt lat="43.76176" lon="7.09542">
        <ele>705</ele>
        <time>2015-11-08T13:38:17Z</time>
      </trkpt>
      <trkpt lat="43.76175" lon="7.09569">
        <ele>704</ele>
        <time>2015-11-08T13:38:46Z</time>
      </trkpt>
      <trkpt lat="43.76176" lon="7.09571">
        <ele>705</ele>
        <time>2015-11-08T13:38:48Z</time>
      </trkpt>
      <trkpt lat="43.76176" lon="7.09576">
        <ele>704</ele>
        <time>2015-11-08T13:38:52Z</time>
      </trkpt>
      <trkpt lat="43.76178" lon="7.09578">
        <ele>704</ele>
        <time>2015-11-08T13:38:55Z</time>
      </trkpt>
      <trkpt lat="43.76179" lon="7.09579">
        <ele>703</ele>
        <time>2015-11-08T13:38:57Z</time>
      </trkpt>
      <trkpt lat="43.7618" lon="7.09586">
        <ele>702</ele>
        <time>2015-11-08T13:39:03Z</time>
      </trkpt>
      <trkpt lat="43.76172" lon="7.09626">
        <ele>699</ele>
        <time>2015-11-08T13:39:33Z</time>
      </trkpt>
      <trkpt lat="43.76163" lon="7.09655">
        <ele>698</ele>
        <time>2015-11-08T13:40:03Z</time>
      </trkpt>
      <trkpt lat="43.76159" lon="7.09663">
        <ele>697</ele>
        <time>2015-11-08T13:40:30Z</time>
      </trkpt>
      <trkpt lat="43.76157" lon="7.09663">
        <ele>696</ele>
        <time>2015-11-08T13:40:31Z</time>
      </trkpt>
      <trkpt lat="43.76156" lon="7.09664">
        <ele>696</ele>
        <time>2015-11-08T13:40:33Z</time>
      </trkpt>
      <trkpt lat="43.76154" lon="7.09666">
        <ele>696</ele>
        <time>2015-11-08T13:40:34Z</time>
      </trkpt>
      <trkpt lat="43.76153" lon="7.09667">
        <ele>695</ele>
        <time>2015-11-08T13:40:35Z</time>
      </trkpt>
      <trkpt lat="43.76152" lon="7.09668">
        <ele>695</ele>
        <time>2015-11-08T13:40:36Z</time>
      </trkpt>
      <trkpt lat="43.76151" lon="7.09671">
        <ele>696</ele>
        <time>2015-11-08T13:40:38Z</time>
      </trkpt>
      <trkpt lat="43.76149" lon="7.09673">
        <ele>695</ele>
        <time>2015-11-08T13:40:40Z</time>
      </trkpt>
      <trkpt lat="43.76149" lon="7.09674">
        <ele>694</ele>
        <time>2015-11-08T13:40:43Z</time>
      </trkpt>
      <trkpt lat="43.76147" lon="7.09675">
        <ele>694</ele>
        <time>2015-11-08T13:40:45Z</time>
      </trkpt>
      <trkpt lat="43.76147" lon="7.09678">
        <ele>694</ele>
        <time>2015-11-08T13:40:47Z</time>
      </trkpt>
      <trkpt lat="43.76143" lon="7.09682">
        <ele>693</ele>
        <time>2015-11-08T13:40:50Z</time>
      </trkpt>
      <trkpt lat="43.76142" lon="7.09683">
        <ele>693</ele>
        <time>2015-11-08T13:40:52Z</time>
      </trkpt>
      <trkpt lat="43.76131" lon="7.09719">
        <ele>691</ele>
        <time>2015-11-08T13:41:23Z</time>
      </trkpt>
      <trkpt lat="43.76123" lon="7.0975">
        <ele>691</ele>
        <time>2015-11-08T13:41:53Z</time>
      </trkpt>
      <trkpt lat="43.76121" lon="7.09759">
        <ele>691</ele>
        <time>2015-11-08T13:41:59Z</time>
      </trkpt>
      <trkpt lat="43.76122" lon="7.0976">
        <ele>691</ele>
        <time>2015-11-08T13:42:00Z</time>
      </trkpt>
      <trkpt lat="43.76124" lon="7.09761">
        <ele>692</ele>
        <time>2015-11-08T13:42:02Z</time>
      </trkpt>
      <trkpt lat="43.76138" lon="7.09776">
        <ele>690</ele>
        <time>2015-11-08T13:42:30Z</time>
      </trkpt>
      <trkpt lat="43.76139" lon="7.09783">
        <ele>688</ele>
        <time>2015-11-08T13:42:34Z</time>
      </trkpt>
      <trkpt lat="43.7614" lon="7.09785">
        <ele>688</ele>
        <time>2015-11-08T13:42:37Z</time>
      </trkpt>
      <trkpt lat="43.76141" lon="7.09787">
        <ele>687</ele>
        <time>2015-11-08T13:42:40Z</time>
      </trkpt>
      <trkpt lat="43.7614" lon="7.0979">
        <ele>686</ele>
        <time>2015-11-08T13:42:44Z</time>
      </trkpt>
      <trkpt lat="43.76138" lon="7.09791">
        <ele>684</ele>
        <time>2015-11-08T13:42:48Z</time>
      </trkpt>
      <trkpt lat="43.76137" lon="7.09793">
        <ele>686</ele>
        <time>2015-11-08T13:43:19Z</time>
      </trkpt>
      <trkpt lat="43.76135" lon="7.09793">
        <ele>686</ele>
        <time>2015-11-08T13:43:33Z</time>
      </trkpt>
      <trkpt lat="43.76129" lon="7.098">
        <ele>685</ele>
        <time>2015-11-08T13:44:03Z</time>
      </trkpt>
      <trkpt lat="43.76126" lon="7.09802">
        <ele>684</ele>
        <time>2015-11-08T13:44:07Z</time>
      </trkpt>
      <trkpt lat="43.76125" lon="7.09805">
        <ele>684</ele>
        <time>2015-11-08T13:44:09Z</time>
      </trkpt>
      <trkpt lat="43.76124" lon="7.09805">
        <ele>685</ele>
        <time>2015-11-08T13:44:16Z</time>
      </trkpt>
      <trkpt lat="43.76109" lon="7.09816">
        <ele>689</ele>
        <time>2015-11-08T13:44:32Z</time>
      </trkpt>
      <trkpt lat="43.76109" lon="7.0982">
        <ele>689</ele>
        <time>2015-11-08T13:44:35Z</time>
      </trkpt>
      <trkpt lat="43.76109" lon="7.09821">
        <ele>689</ele>
        <time>2015-11-08T13:44:36Z</time>
      </trkpt>
      <trkpt lat="43.76108" lon="7.09823">
        <ele>687</ele>
        <time>2015-11-08T13:44:39Z</time>
      </trkpt>
      <trkpt lat="43.76107" lon="7.09825">
        <ele>687</ele>
        <time>2015-11-08T13:44:41Z</time>
      </trkpt>
      <trkpt lat="43.76101" lon="7.09829">
        <ele>687</ele>
        <time>2015-11-08T13:44:46Z</time>
      </trkpt>
      <trkpt lat="43.76101" lon="7.09831">
        <ele>686</ele>
        <time>2015-11-08T13:44:48Z</time>
      </trkpt>
      <trkpt lat="43.76092" lon="7.09838">
        <ele>686</ele>
        <time>2015-11-08T13:44:58Z</time>
      </trkpt>
      <trkpt lat="43.76091" lon="7.09841">
        <ele>686</ele>
        <time>2015-11-08T13:45:00Z</time>
      </trkpt>
      <trkpt lat="43.76088" lon="7.09842">
        <ele>685</ele>
        <time>2015-11-08T13:45:03Z</time>
      </trkpt>
      <trkpt lat="43.76087" lon="7.09845">
        <ele>685</ele>
        <time>2015-11-08T13:45:05Z</time>
      </trkpt>
      <trkpt lat="43.76086" lon="7.09846">
        <ele>685</ele>
        <time>2015-11-08T13:45:06Z</time>
      </trkpt>
      <trkpt lat="43.76085" lon="7.09848">
        <ele>685</ele>
        <time>2015-11-08T13:45:07Z</time>
      </trkpt>
      <trkpt lat="43.76083" lon="7.09849">
        <ele>685</ele>
        <time>2015-11-08T13:45:09Z</time>
      </trkpt>
      <trkpt lat="43.76082" lon="7.09851">
        <ele>685</ele>
        <time>2015-11-08T13:45:10Z</time>
      </trkpt>
      <trkpt lat="43.76081" lon="7.09852">
        <ele>685</ele>
        <time>2015-11-08T13:45:12Z</time>
      </trkpt>
      <trkpt lat="43.7608" lon="7.09856">
        <ele>685</ele>
        <time>2015-11-08T13:45:14Z</time>
      </trkpt>
      <trkpt lat="43.7608" lon="7.09859">
        <ele>685</ele>
        <time>2015-11-08T13:45:17Z</time>
      </trkpt>
      <trkpt lat="43.76066" lon="7.09881">
        <ele>682</ele>
        <time>2015-11-08T13:45:47Z</time>
      </trkpt>
      <trkpt lat="43.76044" lon="7.09913">
        <ele>681</ele>
        <time>2015-11-08T13:46:18Z</time>
      </trkpt>
      <trkpt lat="43.76041" lon="7.09918">
        <ele>680</ele>
        <time>2015-11-08T13:46:24Z</time>
      </trkpt>
      <trkpt lat="43.76039" lon="7.09918">
        <ele>680</ele>
        <time>2015-11-08T13:46:26Z</time>
      </trkpt>
      <trkpt lat="43.76038" lon="7.09921">
        <ele>681</ele>
        <time>2015-11-08T13:46:29Z</time>
      </trkpt>
      <trkpt lat="43.76035" lon="7.0993">
        <ele>681</ele>
        <time>2015-11-08T13:46:37Z</time>
      </trkpt>
      <trkpt lat="43.76032" lon="7.09933">
        <ele>680</ele>
        <time>2015-11-08T13:46:40Z</time>
      </trkpt>
      <trkpt lat="43.7603" lon="7.09934">
        <ele>681</ele>
        <time>2015-11-08T13:46:42Z</time>
      </trkpt>
      <trkpt lat="43.76024" lon="7.09939">
        <ele>680</ele>
        <time>2015-11-08T13:46:50Z</time>
      </trkpt>
      <trkpt lat="43.76022" lon="7.09938">
        <ele>682</ele>
        <time>2015-11-08T13:47:13Z</time>
      </trkpt>
      <trkpt lat="43.76019" lon="7.09938">
        <ele>683</ele>
        <time>2015-11-08T13:47:17Z</time>
      </trkpt>
      <trkpt lat="43.76019" lon="7.09941">
        <ele>682</ele>
        <time>2015-11-08T13:47:18Z</time>
      </trkpt>
      <trkpt lat="43.76017" lon="7.09943">
        <ele>681</ele>
        <time>2015-11-08T13:47:20Z</time>
      </trkpt>
      <trkpt lat="43.76015" lon="7.09944">
        <ele>682</ele>
        <time>2015-11-08T13:47:21Z</time>
      </trkpt>
      <trkpt lat="43.75985" lon="7.09976">
        <ele>677</ele>
        <time>2015-11-08T13:47:53Z</time>
      </trkpt>
      <trkpt lat="43.75963" lon="7.10012">
        <ele>675</ele>
        <time>2015-11-08T13:48:25Z</time>
      </trkpt>
      <trkpt lat="43.75938" lon="7.10055">
        <ele>676</ele>
        <time>2015-11-08T13:48:57Z</time>
      </trkpt>
      <trkpt lat="43.75912" lon="7.10088">
        <ele>678</ele>
        <time>2015-11-08T13:49:27Z</time>
      </trkpt>
      <trkpt lat="43.75876" lon="7.10117">
        <ele>675</ele>
        <time>2015-11-08T13:49:57Z</time>
      </trkpt>
      <trkpt lat="43.75876" lon="7.10119">
        <ele>675</ele>
        <time>2015-11-08T13:50:02Z</time>
      </trkpt>
      <trkpt lat="43.75874" lon="7.10121">
        <ele>675</ele>
        <time>2015-11-08T13:50:03Z</time>
      </trkpt>
      <trkpt lat="43.75873" lon="7.10122">
        <ele>675</ele>
        <time>2015-11-08T13:50:04Z</time>
      </trkpt>
      <trkpt lat="43.75868" lon="7.10127">
        <ele>673</ele>
        <time>2015-11-08T13:50:08Z</time>
      </trkpt>
      <trkpt lat="43.75863" lon="7.10132">
        <ele>671</ele>
        <time>2015-11-08T13:50:13Z</time>
      </trkpt>
      <trkpt lat="43.75862" lon="7.10135">
        <ele>671</ele>
        <time>2015-11-08T13:50:20Z</time>
      </trkpt>
      <trkpt lat="43.75861" lon="7.10137">
        <ele>671</ele>
        <time>2015-11-08T13:50:42Z</time>
      </trkpt>
      <trkpt lat="43.75864" lon="7.10142">
        <ele>672</ele>
        <time>2015-11-08T13:50:49Z</time>
      </trkpt>
      <trkpt lat="43.759" lon="7.10166">
        <ele>672</ele>
        <time>2015-11-08T13:51:20Z</time>
      </trkpt>
      <trkpt lat="43.75902" lon="7.10168">
        <ele>670</ele>
        <time>2015-11-08T13:51:22Z</time>
      </trkpt>
      <trkpt lat="43.75904" lon="7.10167">
        <ele>670</ele>
        <time>2015-11-08T13:51:24Z</time>
      </trkpt>
      <trkpt lat="43.75907" lon="7.10169">
        <ele>670</ele>
        <time>2015-11-08T13:51:26Z</time>
      </trkpt>
      <trkpt lat="43.75909" lon="7.10169">
        <ele>670</ele>
        <time>2015-11-08T13:51:27Z</time>
      </trkpt>
      <trkpt lat="43.75943" lon="7.1018">
        <ele>668</ele>
        <time>2015-11-08T13:51:59Z</time>
      </trkpt>
      <trkpt lat="43.75979" lon="7.10182">
        <ele>667</ele>
        <time>2015-11-08T13:52:30Z</time>
      </trkpt>
      <trkpt lat="43.75984" lon="7.10184">
        <ele>668</ele>
        <time>2015-11-08T13:52:34Z</time>
      </trkpt>
      <trkpt lat="43.76016" lon="7.10182">
        <ele>666</ele>
        <time>2015-11-08T13:53:05Z</time>
      </trkpt>
      <trkpt lat="43.7605" lon="7.10191">
        <ele>664</ele>
        <time>2015-11-08T13:53:35Z</time>
      </trkpt>
      <trkpt lat="43.76092" lon="7.10203">
        <ele>663</ele>
        <time>2015-11-08T13:54:12Z</time>
      </trkpt>
      <trkpt lat="43.76132" lon="7.1019">
        <ele>664</ele>
        <time>2015-11-08T13:54:46Z</time>
      </trkpt>
      <trkpt lat="43.76179" lon="7.10188">
        <ele>659</ele>
        <time>2015-11-08T13:55:21Z</time>
      </trkpt>
      <trkpt lat="43.76184" lon="7.10189">
        <ele>659</ele>
        <time>2015-11-08T13:55:25Z</time>
      </trkpt>
      <trkpt lat="43.76231" lon="7.10197">
        <ele>660</ele>
        <time>2015-11-08T13:55:57Z</time>
      </trkpt>
      <trkpt lat="43.76237" lon="7.10209">
        <ele>660</ele>
        <time>2015-11-08T13:56:12Z</time>
      </trkpt>
      <trkpt lat="43.76237" lon="7.10216">
        <ele>659</ele>
        <time>2015-11-08T13:56:16Z</time>
      </trkpt>
      <trkpt lat="43.76234" lon="7.10221">
        <ele>660</ele>
        <time>2015-11-08T13:56:24Z</time>
      </trkpt>
      <trkpt lat="43.76229" lon="7.10227">
        <ele>660</ele>
        <time>2015-11-08T13:56:30Z</time>
      </trkpt>
      <trkpt lat="43.76227" lon="7.10232">
        <ele>661</ele>
        <time>2015-11-08T13:56:34Z</time>
      </trkpt>
      <trkpt lat="43.76227" lon="7.10234">
        <ele>662</ele>
        <time>2015-11-08T13:56:36Z</time>
      </trkpt>
      <trkpt lat="43.76232" lon="7.1028">
        <ele>664</ele>
        <time>2015-11-08T13:57:07Z</time>
      </trkpt>
      <trkpt lat="43.76232" lon="7.10284">
        <ele>665</ele>
        <time>2015-11-08T13:57:09Z</time>
      </trkpt>
      <trkpt lat="43.76234" lon="7.10285">
        <ele>665</ele>
        <time>2015-11-08T13:57:11Z</time>
      </trkpt>
      <trkpt lat="43.76234" lon="7.10288">
        <ele>665</ele>
        <time>2015-11-08T13:57:12Z</time>
      </trkpt>
      <trkpt lat="43.76237" lon="7.10294">
        <ele>665</ele>
        <time>2015-11-08T13:57:18Z</time>
      </trkpt>
      <trkpt lat="43.76237" lon="7.10296">
        <ele>665</ele>
        <time>2015-11-08T13:57:19Z</time>
      </trkpt>
      <trkpt lat="43.76239" lon="7.10303">
        <ele>663</ele>
        <time>2015-11-08T13:57:23Z</time>
      </trkpt>
      <trkpt lat="43.76242" lon="7.10326">
        <ele>662</ele>
        <time>2015-11-08T13:57:37Z</time>
      </trkpt>
      <trkpt lat="43.76229" lon="7.10377">
        <ele>661</ele>
        <time>2015-11-08T13:58:08Z</time>
      </trkpt>
      <trkpt lat="43.76201" lon="7.10422">
        <ele>662</ele>
        <time>2015-11-08T13:58:41Z</time>
      </trkpt>
      <trkpt lat="43.76185" lon="7.10433">
        <ele>664</ele>
        <time>2015-11-08T13:59:02Z</time>
      </trkpt>
      <trkpt lat="43.76141" lon="7.10427">
        <ele>665</ele>
        <time>2015-11-08T13:59:33Z</time>
      </trkpt>
      <trkpt lat="43.76108" lon="7.10425">
        <ele>656</ele>
        <time>2015-11-08T14:00:05Z</time>
      </trkpt>
      <trkpt lat="43.76069" lon="7.10426">
        <ele>656</ele>
        <time>2015-11-08T14:00:35Z</time>
      </trkpt>
      <trkpt lat="43.76041" lon="7.1047">
        <ele>656</ele>
        <time>2015-11-08T14:01:08Z</time>
      </trkpt>
      <trkpt lat="43.76025" lon="7.10481">
        <ele>656</ele>
        <time>2015-11-08T14:01:20Z</time>
      </trkpt>
      <trkpt lat="43.76024" lon="7.10487">
        <ele>655</ele>
        <time>2015-11-08T14:01:23Z</time>
      </trkpt>
      <trkpt lat="43.76018" lon="7.1049">
        <ele>656</ele>
        <time>2015-11-08T14:01:30Z</time>
      </trkpt>
      <trkpt lat="43.76014" lon="7.1049">
        <ele>655</ele>
        <time>2015-11-08T14:01:34Z</time>
      </trkpt>
      <trkpt lat="43.76013" lon="7.10489">
        <ele>655</ele>
        <time>2015-11-08T14:01:36Z</time>
      </trkpt>
      <trkpt lat="43.76009" lon="7.10488">
        <ele>654</ele>
        <time>2015-11-08T14:01:41Z</time>
      </trkpt>
      <trkpt lat="43.76006" lon="7.10485">
        <ele>653</ele>
        <time>2015-11-08T14:02:02Z</time>
      </trkpt>
      <trkpt lat="43.76004" lon="7.10486">
        <ele>653</ele>
        <time>2015-11-08T14:02:03Z</time>
      </trkpt>
      <trkpt lat="43.76002" lon="7.10486">
        <ele>653</ele>
        <time>2015-11-08T14:02:04Z</time>
      </trkpt>
      <trkpt lat="43.76001" lon="7.10485">
        <ele>654</ele>
        <time>2015-11-08T14:02:05Z</time>
      </trkpt>
      <trkpt lat="43.75999" lon="7.10486">
        <ele>654</ele>
        <time>2015-11-08T14:02:08Z</time>
      </trkpt>
      <trkpt lat="43.75997" lon="7.10485">
        <ele>654</ele>
        <time>2015-11-08T14:02:11Z</time>
      </trkpt>
      <trkpt lat="43.75996" lon="7.10484">
        <ele>654</ele>
        <time>2015-11-08T14:02:13Z</time>
      </trkpt>
      <trkpt lat="43.75994" lon="7.10486">
        <ele>654</ele>
        <time>2015-11-08T14:06:03Z</time>
      </trkpt>
      <trkpt lat="43.75956" lon="7.10491">
        <ele>651</ele>
        <time>2015-11-08T14:06:33Z</time>
      </trkpt>
      <trkpt lat="43.75955" lon="7.10492">
        <ele>652</ele>
        <time>2015-11-08T14:06:34Z</time>
      </trkpt>
      <trkpt lat="43.75937" lon="7.10496">
        <ele>651</ele>
        <time>2015-11-08T14:06:49Z</time>
      </trkpt>
      <trkpt lat="43.75936" lon="7.10494">
        <ele>651</ele>
        <time>2015-11-08T14:06:51Z</time>
      </trkpt>
      <trkpt lat="43.75907" lon="7.10486">
        <ele>647</ele>
        <time>2015-11-08T14:07:21Z</time>
      </trkpt>
      <trkpt lat="43.75905" lon="7.10486">
        <ele>647</ele>
        <time>2015-11-08T14:07:23Z</time>
      </trkpt>
      <trkpt lat="43.75886" lon="7.10486">
        <ele>649</ele>
        <time>2015-11-08T14:07:36Z</time>
      </trkpt>
      <trkpt lat="43.75885" lon="7.10484">
        <ele>649</ele>
        <time>2015-11-08T14:07:37Z</time>
      </trkpt>
      <trkpt lat="43.75883" lon="7.10483">
        <ele>650</ele>
        <time>2015-11-08T14:07:38Z</time>
      </trkpt>
      <trkpt lat="43.75881" lon="7.10483">
        <ele>650</ele>
        <time>2015-11-08T14:07:39Z</time>
      </trkpt>
      <trkpt lat="43.7588" lon="7.10483">
        <ele>650</ele>
        <time>2015-11-08T14:07:40Z</time>
      </trkpt>
      <trkpt lat="43.75878" lon="7.10482">
        <ele>651</ele>
        <time>2015-11-08T14:07:41Z</time>
      </trkpt>
      <trkpt lat="43.75876" lon="7.1048">
        <ele>650</ele>
        <time>2015-11-08T14:07:43Z</time>
      </trkpt>
      <trkpt lat="43.75874" lon="7.10479">
        <ele>650</ele>
        <time>2015-11-08T14:07:44Z</time>
      </trkpt>
      <trkpt lat="43.75873" lon="7.10478">
        <ele>650</ele>
        <time>2015-11-08T14:07:45Z</time>
      </trkpt>
      <trkpt lat="43.75862" lon="7.10469">
        <ele>651</ele>
        <time>2015-11-08T14:07:53Z</time>
      </trkpt>
      <trkpt lat="43.75862" lon="7.10467">
        <ele>651</ele>
        <time>2015-11-08T14:07:54Z</time>
      </trkpt>
      <trkpt lat="43.75827" lon="7.10446">
        <ele>650</ele>
        <time>2015-11-08T14:08:23Z</time>
      </trkpt>
      <trkpt lat="43.75825" lon="7.10446">
        <ele>650</ele>
        <time>2015-11-08T14:08:24Z</time>
      </trkpt>
      <trkpt lat="43.75821" lon="7.10445">
        <ele>650</ele>
        <time>2015-11-08T14:08:27Z</time>
      </trkpt>
      <trkpt lat="43.75819" lon="7.10444">
        <ele>649</ele>
        <time>2015-11-08T14:08:28Z</time>
      </trkpt>
      <trkpt lat="43.75818" lon="7.10445">
        <ele>649</ele>
        <time>2015-11-08T14:08:30Z</time>
      </trkpt>
      <trkpt lat="43.75816" lon="7.10444">
        <ele>649</ele>
        <time>2015-11-08T14:08:32Z</time>
      </trkpt>
      <trkpt lat="43.75815" lon="7.10446">
        <ele>649</ele>
        <time>2015-11-08T14:08:33Z</time>
      </trkpt>
      <trkpt lat="43.75806" lon="7.10448">
        <ele>647</ele>
        <time>2015-11-08T14:08:43Z</time>
      </trkpt>
      <trkpt lat="43.75805" lon="7.10447">
        <ele>646</ele>
        <time>2015-11-08T14:08:45Z</time>
      </trkpt>
      <trkpt lat="43.75802" lon="7.10447">
        <ele>645</ele>
        <time>2015-11-08T14:08:47Z</time>
      </trkpt>
      <trkpt lat="43.75781" lon="7.10454">
        <ele>645</ele>
        <time>2015-11-08T14:09:03Z</time>
      </trkpt>
      <trkpt lat="43.75754" lon="7.10415">
        <ele>639</ele>
        <time>2015-11-08T14:09:34Z</time>
      </trkpt>
      <trkpt lat="43.75745" lon="7.10408">
        <ele>641</ele>
        <time>2015-11-08T14:09:41Z</time>
      </trkpt>
      <trkpt lat="43.75743" lon="7.10408">
        <ele>642</ele>
        <time>2015-11-08T14:09:42Z</time>
      </trkpt>
      <trkpt lat="43.75742" lon="7.10407">
        <ele>642</ele>
        <time>2015-11-08T14:09:43Z</time>
      </trkpt>
      <trkpt lat="43.75739" lon="7.10404">
        <ele>642</ele>
        <time>2015-11-08T14:09:46Z</time>
      </trkpt>
      <trkpt lat="43.75738" lon="7.10403">
        <ele>642</ele>
        <time>2015-11-08T14:09:47Z</time>
      </trkpt>
      <trkpt lat="43.75735" lon="7.10401">
        <ele>643</ele>
        <time>2015-11-08T14:09:49Z</time>
      </trkpt>
      <trkpt lat="43.75735" lon="7.10399">
        <ele>643</ele>
        <time>2015-11-08T14:09:50Z</time>
      </trkpt>
      <trkpt lat="43.75732" lon="7.10397">
        <ele>643</ele>
        <time>2015-11-08T14:09:52Z</time>
      </trkpt>
      <trkpt lat="43.75731" lon="7.10395">
        <ele>643</ele>
        <time>2015-11-08T14:09:54Z</time>
      </trkpt>
      <trkpt lat="43.75727" lon="7.10393">
        <ele>644</ele>
        <time>2015-11-08T14:09:56Z</time>
      </trkpt>
      <trkpt lat="43.75725" lon="7.1039">
        <ele>644</ele>
        <time>2015-11-08T14:09:58Z</time>
      </trkpt>
      <trkpt lat="43.75721" lon="7.10385">
        <ele>643</ele>
        <time>2015-11-08T14:10:02Z</time>
      </trkpt>
      <trkpt lat="43.7572" lon="7.10385">
        <ele>643</ele>
        <time>2015-11-08T14:10:05Z</time>
      </trkpt>
      <trkpt lat="43.75717" lon="7.10383">
        <ele>641</ele>
        <time>2015-11-08T14:10:11Z</time>
      </trkpt>
      <trkpt lat="43.75715" lon="7.10381">
        <ele>644</ele>
        <time>2015-11-08T14:10:59Z</time>
      </trkpt>
      <trkpt lat="43.75712" lon="7.10379">
        <ele>644</ele>
        <time>2015-11-08T14:11:01Z</time>
      </trkpt>
      <trkpt lat="43.75711" lon="7.10378">
        <ele>644</ele>
        <time>2015-11-08T14:11:02Z</time>
      </trkpt>
      <trkpt lat="43.7571" lon="7.10376">
        <ele>644</ele>
        <time>2015-11-08T14:11:03Z</time>
      </trkpt>
      <trkpt lat="43.75709" lon="7.10377">
        <ele>644</ele>
        <time>2015-11-08T14:11:04Z</time>
      </trkpt>
      <trkpt lat="43.75706" lon="7.10376">
        <ele>644</ele>
        <time>2015-11-08T14:11:06Z</time>
      </trkpt>
      <trkpt lat="43.75702" lon="7.10373">
        <ele>644</ele>
        <time>2015-11-08T14:11:09Z</time>
      </trkpt>
      <trkpt lat="43.75671" lon="7.1034">
        <ele>644</ele>
        <time>2015-11-08T14:11:39Z</time>
      </trkpt>
      <trkpt lat="43.7567" lon="7.10339">
        <ele>644</ele>
        <time>2015-11-08T14:11:40Z</time>
      </trkpt>
      <trkpt lat="43.75634" lon="7.10328">
        <ele>647</ele>
        <time>2015-11-08T14:12:10Z</time>
      </trkpt>
      <trkpt lat="43.75632" lon="7.10328">
        <ele>647</ele>
        <time>2015-11-08T14:12:12Z</time>
      </trkpt>
      <trkpt lat="43.7559" lon="7.10322">
        <ele>649</ele>
        <time>2015-11-08T14:12:42Z</time>
      </trkpt>
      <trkpt lat="43.75561" lon="7.10321">
        <ele>652</ele>
        <time>2015-11-08T14:13:03Z</time>
      </trkpt>
      <trkpt lat="43.75559" lon="7.10321">
        <ele>652</ele>
        <time>2015-11-08T14:13:07Z</time>
      </trkpt>
      <trkpt lat="43.75558" lon="7.10322">
        <ele>651</ele>
        <time>2015-11-08T14:13:08Z</time>
      </trkpt>
      <trkpt lat="43.75543" lon="7.1032">
        <ele>650</ele>
        <time>2015-11-08T14:13:23Z</time>
      </trkpt>
      <trkpt lat="43.75541" lon="7.1032">
        <ele>650</ele>
        <time>2015-11-08T14:13:28Z</time>
      </trkpt>
      <trkpt lat="43.75539" lon="7.10318">
        <ele>651</ele>
        <time>2015-11-08T14:13:45Z</time>
      </trkpt>
      <trkpt lat="43.75515" lon="7.10307">
        <ele>655</ele>
        <time>2015-11-08T14:14:16Z</time>
      </trkpt>
      <trkpt lat="43.75513" lon="7.10308">
        <ele>655</ele>
        <time>2015-11-08T14:14:18Z</time>
      </trkpt>
      <trkpt lat="43.75512" lon="7.10308">
        <ele>656</ele>
        <time>2015-11-08T14:14:22Z</time>
      </trkpt>
      <trkpt lat="43.7551" lon="7.10307">
        <ele>656</ele>
        <time>2015-11-08T14:14:27Z</time>
      </trkpt>
      <trkpt lat="43.75506" lon="7.10306">
        <ele>656</ele>
        <time>2015-11-08T14:14:33Z</time>
      </trkpt>
      <trkpt lat="43.75504" lon="7.10304">
        <ele>657</ele>
        <time>2015-11-08T14:14:35Z</time>
      </trkpt>
      <trkpt lat="43.75502" lon="7.10304">
        <ele>658</ele>
        <time>2015-11-08T14:14:39Z</time>
      </trkpt>
      <trkpt lat="43.755" lon="7.10303">
        <ele>659</ele>
        <time>2015-11-08T14:14:43Z</time>
      </trkpt>
      <trkpt lat="43.755" lon="7.10302">
        <ele>660</ele>
        <time>2015-11-08T14:14:45Z</time>
      </trkpt>
      <trkpt lat="43.75487" lon="7.1027">
        <ele>667</ele>
        <time>2015-11-08T14:15:16Z</time>
      </trkpt>
      <trkpt lat="43.75486" lon="7.10269">
        <ele>668</ele>
        <time>2015-11-08T14:15:19Z</time>
      </trkpt>
      <trkpt lat="43.75484" lon="7.10267">
        <ele>668</ele>
        <time>2015-11-08T14:15:22Z</time>
      </trkpt>
      <trkpt lat="43.75483" lon="7.10265">
        <ele>668</ele>
        <time>2015-11-08T14:15:24Z</time>
      </trkpt>
      <trkpt lat="43.75482" lon="7.10264">
        <ele>669</ele>
        <time>2015-11-08T14:15:27Z</time>
      </trkpt>
      <trkpt lat="43.75472" lon="7.10248">
        <ele>671</ele>
        <time>2015-11-08T14:15:46Z</time>
      </trkpt>
      <trkpt lat="43.7547" lon="7.10243">
        <ele>674</ele>
        <time>2015-11-08T14:15:51Z</time>
      </trkpt>
      <trkpt lat="43.75466" lon="7.10239">
        <ele>675</ele>
        <time>2015-11-08T14:15:56Z</time>
      </trkpt>
      <trkpt lat="43.7546" lon="7.1023">
        <ele>680</ele>
        <time>2015-11-08T14:16:27Z</time>
      </trkpt>
      <trkpt lat="43.7545" lon="7.10218">
        <ele>681</ele>
        <time>2015-11-08T14:16:41Z</time>
      </trkpt>
      <trkpt lat="43.75447" lon="7.10213">
        <ele>683</ele>
        <time>2015-11-08T14:17:33Z</time>
      </trkpt>
      <trkpt lat="43.75444" lon="7.10208">
        <ele>683</ele>
        <time>2015-11-08T14:17:36Z</time>
      </trkpt>
      <trkpt lat="43.75439" lon="7.10206">
        <ele>683</ele>
        <time>2015-11-08T14:17:40Z</time>
      </trkpt>
      <trkpt lat="43.75437" lon="7.10201">
        <ele>684</ele>
        <time>2015-11-08T14:17:44Z</time>
      </trkpt>
      <trkpt lat="43.75433" lon="7.10198">
        <ele>686</ele>
        <time>2015-11-08T14:17:49Z</time>
      </trkpt>
      <trkpt lat="43.75415" lon="7.10192">
        <ele>688</ele>
        <time>2015-11-08T14:18:06Z</time>
      </trkpt>
      <trkpt lat="43.75413" lon="7.10193">
        <ele>688</ele>
        <time>2015-11-08T14:18:09Z</time>
      </trkpt>
      <trkpt lat="43.75408" lon="7.10191">
        <ele>690</ele>
        <time>2015-11-08T14:18:12Z</time>
      </trkpt>
      <trkpt lat="43.75407" lon="7.10191">
        <ele>690</ele>
        <time>2015-11-08T14:18:13Z</time>
      </trkpt>
      <trkpt lat="43.75404" lon="7.10188">
        <ele>692</ele>
        <time>2015-11-08T14:18:18Z</time>
      </trkpt>
      <trkpt lat="43.75383" lon="7.10177">
        <ele>694</ele>
        <time>2015-11-08T14:18:35Z</time>
      </trkpt>
      <trkpt lat="43.75381" lon="7.10173">
        <ele>695</ele>
        <time>2015-11-08T14:18:39Z</time>
      </trkpt>
      <trkpt lat="43.75379" lon="7.10172">
        <ele>695</ele>
        <time>2015-11-08T14:18:40Z</time>
      </trkpt>
      <trkpt lat="43.75378" lon="7.1017">
        <ele>695</ele>
        <time>2015-11-08T14:18:41Z</time>
      </trkpt>
      <trkpt lat="43.75379" lon="7.10167">
        <ele>696</ele>
        <time>2015-11-08T14:19:00Z</time>
      </trkpt>
      <trkpt lat="43.75379" lon="7.10166">
        <ele>694</ele>
        <time>2015-11-08T14:19:15Z</time>
      </trkpt>
      <trkpt lat="43.75381" lon="7.10164">
        <ele>694</ele>
        <time>2015-11-08T14:21:11Z</time>
      </trkpt>
      <trkpt lat="43.75381" lon="7.10164">
        <ele>694</ele>
        <time>2015-11-08T14:21:12Z</time>
      </trkpt>
      <trkpt lat="43.7539" lon="7.10167">
        <ele>695</ele>
        <time>2015-11-08T14:21:42Z</time>
      </trkpt>
      <trkpt lat="43.75408" lon="7.10172">
        <ele>693</ele>
        <time>2015-11-08T14:21:59Z</time>
      </trkpt>
      <trkpt lat="43.7543" lon="7.10144">
        <ele>690</ele>
        <time>2015-11-08T14:22:31Z</time>
      </trkpt>
      <trkpt lat="43.75454" lon="7.10116">
        <ele>685</ele>
        <time>2015-11-08T14:23:01Z</time>
      </trkpt>
      <trkpt lat="43.75481" lon="7.10089">
        <ele>683</ele>
        <time>2015-11-08T14:23:36Z</time>
      </trkpt>
      <trkpt lat="43.75509" lon="7.10065">
        <ele>680</ele>
        <time>2015-11-08T14:24:08Z</time>
      </trkpt>
      <trkpt lat="43.75531" lon="7.10034">
        <ele>677</ele>
        <time>2015-11-08T14:24:40Z</time>
      </trkpt>
      <trkpt lat="43.75563" lon="7.10016">
        <ele>677</ele>
        <time>2015-11-08T14:25:12Z</time>
      </trkpt>
      <trkpt lat="43.75589" lon="7.10008">
        <ele>675</ele>
        <time>2015-11-08T14:25:46Z</time>
      </trkpt>
      <trkpt lat="43.75592" lon="7.10011">
        <ele>674</ele>
        <time>2015-11-08T14:25:50Z</time>
      </trkpt>
      <trkpt lat="43.75592" lon="7.10009">
        <ele>674</ele>
        <time>2015-11-08T14:25:52Z</time>
      </trkpt>
      <trkpt lat="43.75595" lon="7.10005">
        <ele>673</ele>
        <time>2015-11-08T14:25:57Z</time>
      </trkpt>
      <trkpt lat="43.75598" lon="7.10005">
        <ele>673</ele>
        <time>2015-11-08T14:26:01Z</time>
      </trkpt>
      <trkpt lat="43.75599" lon="7.10007">
        <ele>673</ele>
        <time>2015-11-08T14:26:03Z</time>
      </trkpt>
      <trkpt lat="43.75602" lon="7.10006">
        <ele>673</ele>
        <time>2015-11-08T14:26:07Z</time>
      </trkpt>
      <trkpt lat="43.75612" lon="7.10023">
        <ele>675</ele>
        <time>2015-11-08T14:26:36Z</time>
      </trkpt>
      <trkpt lat="43.75614" lon="7.10024">
        <ele>674</ele>
        <time>2015-11-08T14:26:38Z</time>
      </trkpt>
      <trkpt lat="43.7562" lon="7.10032">
        <ele>675</ele>
        <time>2015-11-08T14:26:47Z</time>
      </trkpt>
      <trkpt lat="43.75624" lon="7.10033">
        <ele>674</ele>
        <time>2015-11-08T14:26:51Z</time>
      </trkpt>
      <trkpt lat="43.75653" lon="7.10057">
        <ele>673</ele>
        <time>2015-11-08T14:27:23Z</time>
      </trkpt>
      <trkpt lat="43.75664" lon="7.10064">
        <ele>673</ele>
        <time>2015-11-08T14:27:39Z</time>
      </trkpt>
      <trkpt lat="43.75663" lon="7.10065">
        <ele>672</ele>
        <time>2015-11-08T14:29:45Z</time>
      </trkpt>
      <trkpt lat="43.75664" lon="7.10067">
        <ele>672</ele>
        <time>2015-11-08T14:33:22Z</time>
      </trkpt>
      <trkpt lat="43.7567" lon="7.10073">
        <ele>672</ele>
        <time>2015-11-08T14:33:28Z</time>
      </trkpt>
      <trkpt lat="43.75709" lon="7.10084">
        <ele>668</ele>
        <time>2015-11-08T14:33:59Z</time>
      </trkpt>
      <trkpt lat="43.75745" lon="7.10104">
        <ele>673</ele>
        <time>2015-11-08T14:34:32Z</time>
      </trkpt>
      <trkpt lat="43.75784" lon="7.10113">
        <ele>675</ele>
        <time>2015-11-08T14:35:05Z</time>
      </trkpt>
      <trkpt lat="43.75804" lon="7.10118">
        <ele>676</ele>
        <time>2015-11-08T14:35:22Z</time>
      </trkpt>
      <trkpt lat="43.75807" lon="7.10122">
        <ele>676</ele>
        <time>2015-11-08T14:35:26Z</time>
      </trkpt>
      <trkpt lat="43.75843" lon="7.10132">
        <ele>677</ele>
        <time>2015-11-08T14:35:59Z</time>
      </trkpt>
      <trkpt lat="43.75851" lon="7.10137">
        <ele>677</ele>
        <time>2015-11-08T14:36:07Z</time>
      </trkpt>
      <trkpt lat="43.75883" lon="7.10114">
        <ele>678</ele>
        <time>2015-11-08T14:36:41Z</time>
      </trkpt>
      <trkpt lat="43.75918" lon="7.10084">
        <ele>679</ele>
        <time>2015-11-08T14:37:13Z</time>
      </trkpt>
      <trkpt lat="43.75945" lon="7.10047">
        <ele>681</ele>
        <time>2015-11-08T14:37:46Z</time>
      </trkpt>
      <trkpt lat="43.75946" lon="7.10041">
        <ele>681</ele>
        <time>2015-11-08T14:37:51Z</time>
      </trkpt>
      <trkpt lat="43.75972" lon="7.09997">
        <ele>678</ele>
        <time>2015-11-08T14:38:23Z</time>
      </trkpt>
      <trkpt lat="43.75999" lon="7.09964">
        <ele>678</ele>
        <time>2015-11-08T14:38:53Z</time>
      </trkpt>
      <trkpt lat="43.7602" lon="7.09938">
        <ele>676</ele>
        <time>2015-11-08T14:39:17Z</time>
      </trkpt>
      <trkpt lat="43.76039" lon="7.09926">
        <ele>678</ele>
        <time>2015-11-08T14:39:35Z</time>
      </trkpt>
      <trkpt lat="43.7604" lon="7.0992">
        <ele>679</ele>
        <time>2015-11-08T14:39:42Z</time>
      </trkpt>
      <trkpt lat="43.7606" lon="7.09894">
        <ele>683</ele>
        <time>2015-11-08T14:40:14Z</time>
      </trkpt>
      <trkpt lat="43.76077" lon="7.09859">
        <ele>686</ele>
        <time>2015-11-08T14:40:46Z</time>
      </trkpt>
      <trkpt lat="43.7609" lon="7.0984">
        <ele>687</ele>
        <time>2015-11-08T14:41:05Z</time>
      </trkpt>
      <trkpt lat="43.76099" lon="7.09835">
        <ele>689</ele>
        <time>2015-11-08T14:41:13Z</time>
      </trkpt>
      <trkpt lat="43.76102" lon="7.09828">
        <ele>689</ele>
        <time>2015-11-08T14:41:17Z</time>
      </trkpt>
      <trkpt lat="43.76107" lon="7.09825">
        <ele>690</ele>
        <time>2015-11-08T14:41:23Z</time>
      </trkpt>
      <trkpt lat="43.76135" lon="7.09798">
        <ele>691</ele>
        <time>2015-11-08T14:41:53Z</time>
      </trkpt>
      <trkpt lat="43.76143" lon="7.09791">
        <ele>690</ele>
        <time>2015-11-08T14:42:00Z</time>
      </trkpt>
      <trkpt lat="43.76143" lon="7.0978">
        <ele>690</ele>
        <time>2015-11-08T14:42:10Z</time>
      </trkpt>
      <trkpt lat="43.76138" lon="7.09768">
        <ele>689</ele>
        <time>2015-11-08T14:42:21Z</time>
      </trkpt>
      <trkpt lat="43.76134" lon="7.09767">
        <ele>689</ele>
        <time>2015-11-08T14:42:29Z</time>
      </trkpt>
      <trkpt lat="43.7613" lon="7.09764">
        <ele>691</ele>
        <time>2015-11-08T14:42:34Z</time>
      </trkpt>
      <trkpt lat="43.76126" lon="7.09763">
        <ele>691</ele>
        <time>2015-11-08T14:42:39Z</time>
      </trkpt>
      <trkpt lat="43.76123" lon="7.09758">
        <ele>692</ele>
        <time>2015-11-08T14:42:45Z</time>
      </trkpt>
      <trkpt lat="43.76127" lon="7.0974">
        <ele>693</ele>
        <time>2015-11-08T14:43:05Z</time>
      </trkpt>
      <trkpt lat="43.76136" lon="7.09715">
        <ele>694</ele>
        <time>2015-11-08T14:43:25Z</time>
      </trkpt>
      <trkpt lat="43.76137" lon="7.09696">
        <ele>698</ele>
        <time>2015-11-08T14:43:40Z</time>
      </trkpt>
      <trkpt lat="43.76147" lon="7.09683">
        <ele>700</ele>
        <time>2015-11-08T14:43:52Z</time>
      </trkpt>
      <trkpt lat="43.76147" lon="7.09677">
        <ele>702</ele>
        <time>2015-11-08T14:44:00Z</time>
      </trkpt>
      <trkpt lat="43.76161" lon="7.0966">
        <ele>703</ele>
        <time>2015-11-08T14:44:17Z</time>
      </trkpt>
      <trkpt lat="43.76162" lon="7.09654">
        <ele>702</ele>
        <time>2015-11-08T14:44:21Z</time>
      </trkpt>
      <trkpt lat="43.76166" lon="7.09651">
        <ele>703</ele>
        <time>2015-11-08T14:44:24Z</time>
      </trkpt>
      <trkpt lat="43.76167" lon="7.09644">
        <ele>703</ele>
        <time>2015-11-08T14:44:32Z</time>
      </trkpt>
      <trkpt lat="43.76174" lon="7.09635">
        <ele>702</ele>
        <time>2015-11-08T14:44:41Z</time>
      </trkpt>
      <trkpt lat="43.76173" lon="7.09629">
        <ele>702</ele>
        <time>2015-11-08T14:44:46Z</time>
      </trkpt>
      <trkpt lat="43.76178" lon="7.09592">
        <ele>699</ele>
        <time>2015-11-08T14:45:16Z</time>
      </trkpt>
      <trkpt lat="43.76177" lon="7.09574">
        <ele>701</ele>
        <time>2015-11-08T14:45:28Z</time>
      </trkpt>
      <trkpt lat="43.76177" lon="7.09542">
        <ele>705</ele>
        <time>2015-11-08T14:46:03Z</time>
      </trkpt>
      <trkpt lat="43.76174" lon="7.09517">
        <ele>707</ele>
        <time>2015-11-08T14:46:20Z</time>
      </trkpt>
      <trkpt lat="43.76171" lon="7.09513">
        <ele>707</ele>
        <time>2015-11-08T14:46:26Z</time>
      </trkpt>
      <trkpt lat="43.76169" lon="7.09468">
        <ele>710</ele>
        <time>2015-11-08T14:46:57Z</time>
      </trkpt>
      <trkpt lat="43.7617" lon="7.09462">
        <ele>711</ele>
        <time>2015-11-08T14:47:01Z</time>
      </trkpt>
      <trkpt lat="43.76168" lon="7.09455">
        <ele>712</ele>
        <time>2015-11-08T14:47:16Z</time>
      </trkpt>
      <trkpt lat="43.76164" lon="7.09452">
        <ele>712</ele>
        <time>2015-11-08T14:47:20Z</time>
      </trkpt>
      <trkpt lat="43.76155" lon="7.09424">
        <ele>716</ele>
        <time>2015-11-08T14:47:47Z</time>
      </trkpt>
      <trkpt lat="43.7615" lon="7.09401">
        <ele>719</ele>
        <time>2015-11-08T14:48:06Z</time>
      </trkpt>
      <trkpt lat="43.7614" lon="7.09369">
        <ele>722</ele>
        <time>2015-11-08T14:48:36Z</time>
      </trkpt>
      <trkpt lat="43.76138" lon="7.09364">
        <ele>722</ele>
        <time>2015-11-08T14:48:41Z</time>
      </trkpt>
      <trkpt lat="43.76137" lon="7.09358">
        <ele>723</ele>
        <time>2015-11-08T14:48:47Z</time>
      </trkpt>
      <trkpt lat="43.76135" lon="7.09336">
        <ele>728</ele>
        <time>2015-11-08T14:49:18Z</time>
      </trkpt>
      <trkpt lat="43.76123" lon="7.09295">
        <ele>732</ele>
        <time>2015-11-08T14:49:50Z</time>
      </trkpt>
      <trkpt lat="43.76124" lon="7.09277">
        <ele>732</ele>
        <time>2015-11-08T14:50:03Z</time>
      </trkpt>
      <trkpt lat="43.76128" lon="7.09276">
        <ele>732</ele>
        <time>2015-11-08T14:50:07Z</time>
      </trkpt>
      <trkpt lat="43.76131" lon="7.09264">
        <ele>731</ele>
        <time>2015-11-08T14:50:15Z</time>
      </trkpt>
      <trkpt lat="43.76134" lon="7.09241">
        <ele>733</ele>
        <time>2015-11-08T14:50:29Z</time>
      </trkpt>
      <trkpt lat="43.76132" lon="7.09236">
        <ele>734</ele>
        <time>2015-11-08T14:50:34Z</time>
      </trkpt>
      <trkpt lat="43.76132" lon="7.09229">
        <ele>734</ele>
        <time>2015-11-08T14:50:39Z</time>
      </trkpt>
      <trkpt lat="43.7613" lon="7.09224">
        <ele>734</ele>
        <time>2015-11-08T14:50:44Z</time>
      </trkpt>
      <trkpt lat="43.76127" lon="7.0922">
        <ele>733</ele>
        <time>2015-11-08T14:50:51Z</time>
      </trkpt>
      <trkpt lat="43.76127" lon="7.09214">
        <ele>733</ele>
        <time>2015-11-08T14:50:56Z</time>
      </trkpt>
      <trkpt lat="43.76126" lon="7.09205">
        <ele>735</ele>
        <time>2015-11-08T14:51:09Z</time>
      </trkpt>
      <trkpt lat="43.76117" lon="7.09171">
        <ele>734</ele>
        <time>2015-11-08T14:51:40Z</time>
      </trkpt>
      <trkpt lat="43.76117" lon="7.09163">
        <ele>735</ele>
        <time>2015-11-08T14:51:44Z</time>
      </trkpt>
      <trkpt lat="43.76118" lon="7.09149">
        <ele>736</ele>
        <time>2015-11-08T14:51:51Z</time>
      </trkpt>
      <trkpt lat="43.76117" lon="7.09144">
        <ele>736</ele>
        <time>2015-11-08T14:51:55Z</time>
      </trkpt>
      <trkpt lat="43.76117" lon="7.09138">
        <ele>737</ele>
        <time>2015-11-08T14:51:59Z</time>
      </trkpt>
      <trkpt lat="43.76114" lon="7.0913">
        <ele>739</ele>
        <time>2015-11-08T14:52:37Z</time>
      </trkpt>
      <trkpt lat="43.761" lon="7.09093">
        <ele>741</ele>
        <time>2015-11-08T14:53:09Z</time>
      </trkpt>
      <trkpt lat="43.76096" lon="7.09077">
        <ele>745</ele>
        <time>2015-11-08T14:53:26Z</time>
      </trkpt>
      <trkpt lat="43.76084" lon="7.09051">
        <ele>746</ele>
        <time>2015-11-08T14:53:57Z</time>
      </trkpt>
      <trkpt lat="43.76085" lon="7.09045">
        <ele>744</ele>
        <time>2015-11-08T14:54:00Z</time>
      </trkpt>
      <trkpt lat="43.76081" lon="7.09027">
        <ele>746</ele>
        <time>2015-11-08T14:54:13Z</time>
      </trkpt>
      <trkpt lat="43.76082" lon="7.09021">
        <ele>752</ele>
        <time>2015-11-08T14:54:17Z</time>
      </trkpt>
      <trkpt lat="43.76074" lon="7.08986">
        <ele>753</ele>
        <time>2015-11-08T14:54:44Z</time>
      </trkpt>
      <trkpt lat="43.7607" lon="7.08982">
        <ele>752</ele>
        <time>2015-11-08T14:54:48Z</time>
      </trkpt>
      <trkpt lat="43.76071" lon="7.08975">
        <ele>752</ele>
        <time>2015-11-08T14:54:54Z</time>
      </trkpt>
      <trkpt lat="43.76055" lon="7.08943">
        <ele>752</ele>
        <time>2015-11-08T14:55:23Z</time>
      </trkpt>
      <trkpt lat="43.76054" lon="7.08937">
        <ele>755</ele>
        <time>2015-11-08T14:55:26Z</time>
      </trkpt>
      <trkpt lat="43.76055" lon="7.08931">
        <ele>756</ele>
        <time>2015-11-08T14:55:30Z</time>
      </trkpt>
      <trkpt lat="43.7605" lon="7.08921">
        <ele>757</ele>
        <time>2015-11-08T14:55:39Z</time>
      </trkpt>
      <trkpt lat="43.76046" lon="7.08918">
        <ele>759</ele>
        <time>2015-11-08T14:55:44Z</time>
      </trkpt>
      <trkpt lat="43.76042" lon="7.08905">
        <ele>761</ele>
        <time>2015-11-08T14:56:08Z</time>
      </trkpt>
      <trkpt lat="43.76021" lon="7.08881">
        <ele>761</ele>
        <time>2015-11-08T14:56:35Z</time>
      </trkpt>
      <trkpt lat="43.76017" lon="7.08871">
        <ele>763</ele>
        <time>2015-11-08T14:56:51Z</time>
      </trkpt>
      <trkpt lat="43.76013" lon="7.08868">
        <ele>763</ele>
        <time>2015-11-08T14:56:55Z</time>
      </trkpt>
      <trkpt lat="43.76011" lon="7.08856">
        <ele>765</ele>
        <time>2015-11-08T14:57:04Z</time>
      </trkpt>
      <trkpt lat="43.76008" lon="7.08845">
        <ele>765</ele>
        <time>2015-11-08T14:57:12Z</time>
      </trkpt>
      <trkpt lat="43.75999" lon="7.08832">
        <ele>768</ele>
        <time>2015-11-08T14:57:30Z</time>
      </trkpt>
      <trkpt lat="43.75994" lon="7.08826">
        <ele>770</ele>
        <time>2015-11-08T14:57:38Z</time>
      </trkpt>
      <trkpt lat="43.75992" lon="7.08821">
        <ele>770</ele>
        <time>2015-11-08T14:57:43Z</time>
      </trkpt>
      <trkpt lat="43.75975" lon="7.08812">
        <ele>772</ele>
        <time>2015-11-08T14:58:05Z</time>
      </trkpt>
      <trkpt lat="43.75963" lon="7.08794">
        <ele>775</ele>
        <time>2015-11-08T14:58:22Z</time>
      </trkpt>
      <trkpt lat="43.75958" lon="7.08791">
        <ele>775</ele>
        <time>2015-11-08T14:58:26Z</time>
      </trkpt>
      <trkpt lat="43.75953" lon="7.08791">
        <ele>776</ele>
        <time>2015-11-08T14:58:31Z</time>
      </trkpt>
      <trkpt lat="43.7595" lon="7.08788">
        <ele>780</ele>
        <time>2015-11-08T14:58:37Z</time>
      </trkpt>
      <trkpt lat="43.75941" lon="7.08787">
        <ele>779</ele>
        <time>2015-11-08T14:58:47Z</time>
      </trkpt>
      <trkpt lat="43.75938" lon="7.08783">
        <ele>780</ele>
        <time>2015-11-08T14:58:51Z</time>
      </trkpt>
      <trkpt lat="43.7593" lon="7.08781">
        <ele>783</ele>
        <time>2015-11-08T14:58:59Z</time>
      </trkpt>
      <trkpt lat="43.75925" lon="7.08783">
        <ele>782</ele>
        <time>2015-11-08T14:59:02Z</time>
      </trkpt>
      <trkpt lat="43.75921" lon="7.08781">
        <ele>782</ele>
        <time>2015-11-08T14:59:07Z</time>
      </trkpt>
      <trkpt lat="43.75919" lon="7.08775">
        <ele>782</ele>
        <time>2015-11-08T14:59:16Z</time>
      </trkpt>
      <trkpt lat="43.75912" lon="7.0877">
        <ele>781</ele>
        <time>2015-11-08T14:59:27Z</time>
      </trkpt>
      <trkpt lat="43.75889" lon="7.08761">
        <ele>784</ele>
        <time>2015-11-08T14:59:48Z</time>
      </trkpt>
      <trkpt lat="43.75864" lon="7.08738">
        <ele>786</ele>
        <time>2015-11-08T15:00:18Z</time>
      </trkpt>
    </trkseg>
  </trk>
</gpx>